Time;durP1;ratioP1;P1;durP2;ratioP2;P2;SDS_P1;SDS_P2;PMS_P1;PMS_P2;Temp;Humidity;BMP_temperature;BMP_pressure;BME280_temperature;BME280_humidity;BME280_pressure;Samples;Min_cycle;Max_cycle;Signal;HPM_P1;HPM_P2
2024/01/06 00:01:49;;;;;;;;;;;;;;;;;;2208762;59;2338;-24
2024/01/06 00:04:20;;;;;;;;;;;;;;;;;;2208925;53;2702;-24
2024/01/06 00:06:51;;;;;;;;;;;;;;;;;;2213309;58;1770;-23
2024/01/06 00:09:21;;;;;;;;;;;;;;;;;;2211631;59;2679;-24
2024/01/06 00:11:52;;;;;;;;;;;;;;;;;;2211880;66;1872;-24
2024/01/06 00:14:24;;;;;;;;;;;;;;;;;;2211824;58;1823;-21
2024/01/06 00:16:54;;;;;;;;;;;;;;;;;;2211119;66;1839;-20
2024/01/06 00:19:25;;;;;;;;;;;;;;;;;;2210466;59;1996;-23
2024/01/06 00:21:55;;;;;;;;;;;;;;;;;;2211922;66;1829;-23
2024/01/06 00:24:26;;;;;;;;;;;;;;;;;;2211626;66;2244;-20
2024/01/06 00:26:56;;;;;;;;;;;;;;;;;;2210288;66;2100;-21
2024/01/06 00:29:27;;;;;;;;;;;;;;;;;;2210805;66;1909;-20
2024/01/06 00:31:58;;;;;;;;;;;;;;;;;;2211040;59;1716;-23
2024/01/06 00:34:29;;;;;;;;;;;;;;;;;;2210957;66;1857;-23
2024/01/06 00:37:01;;;;;;;;;;;;;;;;;;2211607;66;1789;-24
2024/01/06 00:39:31;;;;;;;;;;;;;;;;;;2207846;59;1930;-24
2024/01/06 00:42:01;;;;;;;;;;;;;;;;;;2211491;66;2033;-20
2024/01/06 00:44:32;;;;;;;;;;;;;;;;;;2210614;66;2175;-24
2024/01/06 00:47:03;;;;;;;;;;;;;;;;;;2211258;59;2251;-24
2024/01/06 00:49:34;;;;;;;;;;;;;;;;;;2210012;66;1961;-20
2024/01/06 00:52:04;;;;;;;;;;;;;;;;;;2208507;59;1791;-20
2024/01/06 00:54:35;;;;;;;;;;;;;;;;;;2210353;59;2046;-23
2024/01/06 00:57:06;;;;;;;;;;;;;;;;;;2211268;59;2461;-23
2024/01/06 00:59:36;;;;;;;;;;;;;;;;;;2210491;59;2000;-20
2024/01/06 01:02:07;;;;;;;;;;;;;;;;;;2210722;59;2906;-24
2024/01/06 01:04:38;;;;;;;;;;;;;;;;;;2210578;59;1845;-20
2024/01/06 01:07:11;;;;;;;;;;;;;;;;;;2207478;59;1855;-24
2024/01/06 01:09:42;;;;;;;;;;;;;;;;;;2211410;59;2448;-23
2024/01/06 01:12:14;;;;;;;;;;;;;;;;;;2210727;59;2107;-20
2024/01/06 01:14:45;;;;;;;;;;;;;;;;;;2212282;58;2020;-20
2024/01/06 01:17:18;;;;;;;;;;;;;;;;;;2211651;66;1742;-20
2024/01/06 01:19:49;;;;;;;;;;;;;;;;;;2214917;53;3017;-20
2024/01/06 01:22:19;;;;;;;;;;;;;;;;;;2207854;59;1905;-29
2024/01/06 01:24:50;;;;;;;;;;;;;;;;;;2208780;67;2008;-23
2024/01/06 01:27:20;;;;;;;;;;;;;;;;;;2211145;53;2544;-24
2024/01/06 01:29:52;;;;;;;;;;;;;;;;;;2212592;59;1926;-24
2024/01/06 01:32:23;;;;;;;;;;;;;;;;;;2211186;59;2165;-20
2024/01/06 01:34:53;;;;;;;;;;;;;;;;;;2210106;53;3201;-23
2024/01/06 01:37:23;;;;;;;;;;;;;;;;;;2205279;59;2273;-24
2024/01/06 01:39:54;;;;;;;;;;;;;;;;;;2201730;67;2634;-23
2024/01/06 01:42:24;;;;;;;;;;;;;;;;;;2200395;67;1931;-24
2024/01/06 01:44:55;;;;;;;;;;;;;;;;;;2201543;67;2747;-24
2024/01/06 01:47:26;;;;;;;;;;;;;;;;;;2203760;59;2059;-20
2024/01/06 01:49:56;;;;;;;;;;;;;;;;;;2202574;59;2245;-25
2024/01/06 01:52:27;;;;;;;;;;;;;;;;;;2200803;59;1860;-23
2024/01/06 01:54:58;;;;;;;;;;;;;;;;;;2202755;59;2502;-23
2024/01/06 01:57:29;;;;;;;;;;;;;;;;;;2203980;67;2350;-24
2024/01/06 02:00:00;;;;;;;;;;;;;;;;;;2202109;67;2158;-21
2024/01/06 02:02:32;;;;;;;;;;;;;;;;;;2201245;59;2146;-21
2024/01/06 02:05:03;;;;;;;;;;;;;;;;;;2201505;59;1972;-24
2024/01/06 02:07:34;;;;;;;;;;;;;;;;;;2202205;59;2401;-23
2024/01/06 02:10:04;;;;;;;;;;;;;;;;;;2202037;59;1718;-25
2024/01/06 02:12:35;;;;;;;;;;;;;;;;;;2201973;67;1846;-23
2024/01/06 02:15:05;;;;;;;;;;;;;;;;;;2203675;59;1908;-20
2024/01/06 02:17:36;;;;;;;;;;;;;;;;;;2200992;59;1867;-20
2024/01/06 02:20:07;;;;;;;;;;;;;;;;;;2201592;60;1916;-20
2024/01/06 02:22:38;;;;;;;;;;;;;;;;;;2201436;59;2494;-23
2024/01/06 02:25:12;;;;;;;;;;;;;;;;;;2201867;67;1895;-21
2024/01/06 02:27:43;;;;;;;;;;;;;;;;;;2204677;59;1764;-23
2024/01/06 02:30:13;;;;;;;;;;;;;;;;;;2202640;67;1887;-23
2024/01/06 02:32:43;;;;;;;;;;;;;;;;;;2202285;59;2233;-20
2024/01/06 02:35:14;;;;;;;;;;;;;;;;;;2201642;59;1875;-20
2024/01/06 02:37:45;;;;;;;;;;;;;;;;;;2202112;67;2062;-21
2024/01/06 02:40:15;;;;;;;;;;;;;;;;;;2202120;59;1936;-20
2024/01/06 02:42:46;;;;;;;;;;;;;;;;;;2202482;67;2699;-20
2024/01/06 02:45:16;;;;;;;;;;;;;;;;;;2200913;59;1733;-24
2024/01/06 02:47:47;;;;;;;;;;;;;;;;;;2202517;67;2297;-24
2024/01/06 02:50:18;;;;;;;;;;;;;;;;;;2200486;59;1710;-24
2024/01/06 02:52:48;;;;;;;;;;;;;;;;;;2201410;67;1779;-21
2024/01/06 02:55:19;;;;;;;;;;;;;;;;;;2200903;67;1913;-20
2024/01/06 02:57:50;;;;;;;;;;;;;;;;;;2202098;59;2458;-23
2024/01/06 03:00:21;;;;;;;;;;;;;;;;;;2202878;59;1902;-23
2024/01/06 03:02:52;;;;;;;;;;;;;;;;;;2205076;53;3082;-22
2024/01/06 03:05:23;;;;;;;;;;;;;;;;;;2208761;59;2151;-23
2024/01/06 03:07:54;;;;;;;;;;;;;;;;;;2210175;59;1829;-20
2024/01/06 03:10:24;;;;;;;;;;;;;;;;;;2207691;59;1687;-23
2024/01/06 03:12:55;;;;;;;;;;;;;;;;;;2208322;59;2647;-20
2024/01/06 03:15:25;;;;;;;;;;;;;;;;;;2209223;59;1850;-22
2024/01/06 03:17:56;;;;;;;;;;;;;;;;;;2209109;59;2617;-23
2024/01/06 03:20:26;;;;;;;;;;;;;;;;;;2209054;67;2325;-22
2024/01/06 03:22:57;;;;;;;;;;;;;;;;;;2207630;67;1943;-23
2024/01/06 03:25:28;;;;;;;;;;;;;;;;;;2207984;59;1872;-22
2024/01/06 03:27:59;;;;;;;;;;;;;;;;;;2208119;67;1831;-23
2024/01/06 03:30:29;;;;;;;;;;;;;;;;;;2207887;59;1759;-23
2024/01/06 03:33:00;;;;;;;;;;;;;;;;;;2208150;59;2194;-23
2024/01/06 03:35:31;;;;;;;;;;;;;;;;;;2208361;67;2361;-23
2024/01/06 03:38:01;;;;;;;;;;;;;;;;;;2208078;59;2272;-24
2024/01/06 03:40:32;;;;;;;;;;;;;;;;;;2208340;59;1946;-23
2024/01/06 03:43:03;;;;;;;;;;;;;;;;;;2208183;59;2462;-20
2024/01/06 03:45:34;;;;;;;;;;;;;;;;;;2207432;59;1817;-20
2024/01/06 03:48:05;;;;;;;;;;;;;;;;;;2207988;59;2760;-24
2024/01/06 03:50:35;;;;;;;;;;;;;;;;;;2207830;67;1922;-22
2024/01/06 03:53:06;;;;;;;;;;;;;;;;;;2207431;59;1957;-24
2024/01/06 03:55:37;;;;;;;;;;;;;;;;;;2209025;59;2006;-23
2024/01/06 03:58:07;;;;;;;;;;;;;;;;;;2208966;67;1973;-23
2024/01/06 04:00:38;;;;;;;;;;;;;;;;;;2207904;67;1978;-23
2024/01/06 04:03:09;;;;;;;;;;;;;;;;;;2208429;59;2319;-20
2024/01/06 04:05:40;;;;;;;;;;;;;;;;;;2209221;59;1893;-23
2024/01/06 04:08:10;;;;;;;;;;;;;;;;;;2208509;59;2522;-21
2024/01/06 04:10:41;;;;;;;;;;;;;;;;;;2208560;59;2577;-24
2024/01/06 04:13:12;;;;;;;;;;;;;;;;;;2207920;59;2164;-23
2024/01/06 04:15:42;;;;;;;;;;;;;;;;;;2207849;59;2109;-22
2024/01/06 04:18:13;;;;;;;;;;;;;;;;;;2208716;67;1801;-21
2024/01/06 04:20:44;;;;;;;;;;;;;;;;;;2209859;53;3074;-23
2024/01/06 04:23:15;;;;;;;;;;;;;;;;;;2210168;53;3189;-21
2024/01/06 04:25:45;;;;;;;;;;;;;;;;;;2208999;67;1783;-20
2024/01/06 04:28:16;;;;;;;;;;;;;;;;;;2208664;67;2005;-23
2024/01/06 04:30:47;;;;;;;;;;;;;;;;;;2208332;59;1920;-22
2024/01/06 04:33:18;;;;;;;;;;;;;;;;;;2208812;59;2239;-23
2024/01/06 04:35:50;;;;;;;;;;;;;;;;;;2207221;67;1931;-23
2024/01/06 04:38:20;;;;;;;;;;;;;;;;;;2208081;67;1897;-20
2024/01/06 04:40:50;;;;;;;;;;;;;;;;;;2207661;59;1914;-20
2024/01/06 04:43:21;;;;;;;;;;;;;;;;;;2208570;67;1727;-20
2024/01/06 04:45:51;;;;;;;;;;;;;;;;;;2208620;59;2314;-20
2024/01/06 04:48:22;;;;;;;;;;;;;;;;;;2209970;59;1850;-20
2024/01/06 04:50:52;;;;;;;;;;;;;;;;;;2207926;67;2058;-20
2024/01/06 04:53:23;;;;;;;;;;;;;;;;;;2207845;67;1788;-23
2024/01/06 04:55:54;;;;;;;;;;;;;;;;;;2207882;59;2572;-20
2024/01/06 04:58:25;;;;;;;;;;;;;;;;;;2207972;67;2165;-22
2024/01/06 05:00:55;;;;;;;;;;;;;;;;;;2208026;67;2526;-23
2024/01/06 05:03:26;;;;;;;;;;;;;;;;;;2208028;59;2056;-20
2024/01/06 05:05:57;;;;;;;;;;;;;;;;;;2209320;59;1963;-23
2024/01/06 05:08:30;;;;;;;;;;;;;;;;;;2207672;59;1876;-23
2024/01/06 05:11:00;;;;;;;;;;;;;;;;;;2204919;67;2196;-23
2024/01/06 05:13:31;;;;;;;;;;;;;;;;;;2208270;59;1757;-20
2024/01/06 05:16:01;;;;;;;;;;;;;;;;;;2207514;67;1904;-20
2024/01/06 05:18:32;;;;;;;;;;;;;;;;;;2208210;67;1904;-20
2024/01/06 05:21:03;;;;;;;;;;;;;;;;;;2208174;59;2769;-23
2024/01/06 05:23:34;;;;;;;;;;;;;;;;;;2208902;59;2202;-20
2024/01/06 05:26:04;;;;;;;;;;;;;;;;;;2205767;59;2577;-24
2024/01/06 05:28:35;;;;;;;;;;;;;;;;;;2207893;59;2029;-24
2024/01/06 05:31:05;;;;;;;;;;;;;;;;;;2207835;59;1927;-24
2024/01/06 05:33:36;;;;;;;;;;;;;;;;;;2207459;59;2239;-23
2024/01/06 05:36:07;;;;;;;;;;;;;;;;;;2208193;59;2061;-20
2024/01/06 05:38:38;;;;;;;;;;;;;;;;;;2207239;67;1836;-24
2024/01/06 05:41:09;;;;;;;;;;;;;;;;;;2204669;67;1948;-23
2024/01/06 05:43:40;;;;;;;;;;;;;;;;;;2207068;59;1834;-20
2024/01/06 05:46:10;;;;;;;;;;;;;;;;;;2208100;59;1889;-20
2024/01/06 05:48:42;;;;;;;;;;;;;;;;;;2207043;67;2045;-20
2024/01/06 05:51:12;;;;;;;;;;;;;;;;;;2207502;67;2924;-20
2024/01/06 05:53:43;;;;;;;;;;;;;;;;;;2207088;67;2300;-24
2024/01/06 05:56:26;;;;;;;;;;;;;;;;;;2208410;59;2188;-20
2024/01/06 05:58:57;;;;;;;;;;;;;;;;;;2210763;66;1980;-23
2024/01/06 06:01:28;;;;;;;;;;;;;;;;;;2207683;59;2020;-23
2024/01/06 06:03:59;;;;;;;;;;;;;;;;;;2208569;67;2031;-20
2024/01/06 06:06:30;;;;;;;;;;;;;;;;;;2208572;59;2751;-20
2024/01/06 06:09:06;;;;;;;;;;;;;;;;;;2208238;59;2472;-24
2024/01/06 06:11:36;;;;;;;;;;;;;;;;;;2206823;67;1834;-20
2024/01/06 06:14:07;;;;;;;;;;;;;;;;;;2207463;59;1877;-20
2024/01/06 06:16:37;;;;;;;;;;;;;;;;;;2206826;59;1831;-23
2024/01/06 06:19:08;;;;;;;;;;;;;;;;;;2208154;67;1995;-22
2024/01/06 06:21:39;;;;;;;;;;;;;;;;;;2208620;59;2039;-23
2024/01/06 06:24:09;;;;;;;;;;;;;;;;;;2208192;67;2448;-22
2024/01/06 06:26:40;;;;;;;;;;;;;;;;;;2209190;67;1974;-29
2024/01/06 06:29:11;;;;;;;;;;;;;;;;;;2209582;67;1902;-20
2024/01/06 06:31:46;;;;;;;;;;;;;;;;;;2206358;67;2135;-22
2024/01/06 06:34:17;;;;;;;;;;;;;;;;;;2206918;59;2458;-23
2024/01/06 06:36:48;;;;;;;;;;;;;;;;;;2208585;59;2615;-22
2024/01/06 06:39:19;;;;;;;;;;;;;;;;;;2209705;59;2616;-22
2024/01/06 06:41:50;;;;;;;;;;;;;;;;;;2208468;59;2114;-20
2024/01/06 06:44:21;;;;;;;;;;;;;;;;;;2208414;67;2072;-20
2024/01/06 06:46:52;;;;;;;;;;;;;;;;;;2209504;59;2121;-20
2024/01/06 06:49:23;;;;;;;;;;;;;;;;;;2210191;66;1792;-20
2024/01/06 06:51:55;;;;;;;;;;;;;;;;;;2209138;59;2467;-20
2024/01/06 06:54:26;;;;;;;;;;;;;;;;;;2209218;67;1895;-20
2024/01/06 06:56:57;;;;;;;;;;;;;;;;;;2211494;66;2079;-20
2024/01/06 06:59:28;;;;;;;;;;;;;;;;;;2208717;67;2148;-20
2024/01/06 07:01:58;;;;;;;;;;;;;;;;;;2209323;59;2043;-20
2024/01/06 07:04:29;;;;;;;;;;;;;;;;;;2208426;67;2369;-20
2024/01/06 07:07:00;;;;;;;;;;;;;;;;;;2210138;59;2054;-20
2024/01/06 07:09:31;;;;;;;;;;;;;;;;;;2208021;59;1881;-19
2024/01/06 07:12:01;;;;;;;;;;;;;;;;;;2209408;59;1744;-23
2024/01/06 07:14:32;;;;;;;;;;;;;;;;;;2207872;59;2198;-19
2024/01/06 07:17:04;;;;;;;;;;;;;;;;;;2206771;59;2353;-20
2024/01/06 07:19:36;;;;;;;;;;;;;;;;;;2208308;67;1953;-19
2024/01/06 07:22:06;;;;;;;;;;;;;;;;;;2208478;59;2006;-20
2024/01/06 07:24:37;;;;;;;;;;;;;;;;;;2208050;67;2334;-20
2024/01/06 07:27:08;;;;;;;;;;;;;;;;;;2209079;67;1808;-22
2024/01/06 07:29:39;;;;;;;;;;;;;;;;;;2208405;67;2056;-23
2024/01/06 07:32:09;;;;;;;;;;;;;;;;;;2209154;59;2370;-20
2024/01/06 07:34:40;;;;;;;;;;;;;;;;;;2208544;59;1918;-23
2024/01/06 07:37:10;;;;;;;;;;;;;;;;;;2208660;67;1805;-20
2024/01/06 07:39:42;;;;;;;;;;;;;;;;;;2209454;67;2896;-20
2024/01/06 07:42:13;;;;;;;;;;;;;;;;;;2209074;59;2516;-20
2024/01/06 07:44:44;;;;;;;;;;;;;;;;;;2208821;67;1904;-20
2024/01/06 07:47:15;;;;;;;;;;;;;;;;;;2208849;67;2517;-22
2024/01/06 07:49:47;;;;;;;;;;;;;;;;;;2207904;67;2024;-20
2024/01/06 07:52:18;;;;;;;;;;;;;;;;;;2208524;67;2647;-20
2024/01/06 07:54:48;;;;;;;;;;;;;;;;;;2208092;59;2542;-20
2024/01/06 07:57:19;;;;;;;;;;;;;;;;;;2209292;59;1852;-23
2024/01/06 07:59:49;;;;;;;;;;;;;;;;;;2207758;67;2248;-22
2024/01/06 08:02:21;;;;;;;;;;;;;;;;;;2208727;59;2872;-23
2024/01/06 08:04:51;;;;;;;;;;;;;;;;;;2204798;67;2280;-19
2024/01/06 08:07:22;;;;;;;;;;;;;;;;;;2209607;59;2022;-19
2024/01/06 08:09:53;;;;;;;;;;;;;;;;;;2208458;59;1978;-20
2024/01/06 08:12:24;;;;;;;;;;;;;;;;;;2209204;67;1815;-20
2024/01/06 08:14:57;;;;;;;;;;;;;;;;;;2208574;59;2462;-20
2024/01/06 08:17:28;;;;;;;;;;;;;;;;;;2208289;59;2167;-20
2024/01/06 08:19:59;;;;;;;;;;;;;;;;;;2207631;59;2565;-23
2024/01/06 08:22:30;;;;;;;;;;;;;;;;;;2208470;59;1939;-23
2024/01/06 08:25:00;;;;;;;;;;;;;;;;;;2207894;59;2322;-24
2024/01/06 08:27:31;;;;;;;;;;;;;;;;;;2208151;67;1829;-20
2024/01/06 08:30:01;;;;;;;;;;;;;;;;;;2207373;59;2390;-22
2024/01/06 08:32:31;;;;;;;;;;;;;;;;;;2208266;59;2188;-20
2024/01/06 08:35:03;;;;;;;;;;;;;;;;;;2207802;59;1956;-20
2024/01/06 08:37:33;;;;;;;;;;;;;;;;;;2207695;66;2653;-23
2024/01/06 08:40:04;;;;;;;;;;;;;;;;;;2209522;67;1969;-23
2024/01/06 08:42:35;;;;;;;;;;;;;;;;;;2207790;67;2277;-19
2024/01/06 08:45:06;;;;;;;;;;;;;;;;;;2208517;67;1959;-23
2024/01/06 08:47:37;;;;;;;;;;;;;;;;;;2206944;59;2003;-23
2024/01/06 08:50:08;;;;;;;;;;;;;;;;;;2208370;59;2024;-20
2024/01/06 08:52:38;;;;;;;;;;;;;;;;;;2207777;67;1799;-23
2024/01/06 08:55:08;;;;;;;;;;;;;;;;;;2207932;67;2438;-19
2024/01/06 08:57:39;;;;;;;;;;;;;;;;;;2207451;67;2419;-19
2024/01/06 09:00:10;;;;;;;;;;;;;;;;;;2205919;59;2575;-22
2024/01/06 09:02:41;;;;;;;;;;;;;;;;;;2206769;59;2343;-23
2024/01/06 09:05:12;;;;;;;;;;;;;;;;;;2208888;67;1892;-19
2024/01/06 09:07:43;;;;;;;;;;;;;;;;;;2208679;59;2154;-19
2024/01/06 09:10:13;;;;;;;;;;;;;;;;;;2208418;59;2169;-19
2024/01/06 09:12:44;;;;;;;;;;;;;;;;;;2206967;59;2095;-22
2024/01/06 09:15:15;;;;;;;;;;;;;;;;;;2207753;59;2492;-22
2024/01/06 09:17:45;;;;;;;;;;;;;;;;;;2206726;67;2060;-19
2024/01/06 09:20:17;;;;;;;;;;;;;;;;;;2209412;59;2036;-19
2024/01/06 09:22:48;;;;;;;;;;;;;;;;;;2208854;59;2343;-22
2024/01/06 09:25:18;;;;;;;;;;;;;;;;;;2207162;59;2529;-19
2024/01/06 09:27:49;;;;;;;;;;;;;;;;;;2208873;59;1520;-22
2024/01/06 09:30:20;;;;;;;;;;;;;;;;;;2209626;59;2538;-22
2024/01/06 09:32:50;;;;;;;;;;;;;;;;;;2208117;59;2684;-22
2024/01/06 09:35:21;;;;;;;;;;;;;;;;;;2211320;66;1910;-20
2024/01/06 09:37:51;;;;;;;;;;;;;;;;;;2209401;67;2547;-22
2024/01/06 09:40:23;;;;;;;;;;;;;;;;;;2209161;59;2056;-22
2024/01/06 09:42:54;;;;;;;;;;;;;;;;;;2206086;59;2556;-19
2024/01/06 09:45:25;;;;;;;;;;;;;;;;;;2209060;59;2229;-22
2024/01/06 09:47:55;;;;;;;;;;;;;;;;;;2207776;59;2840;-20
2024/01/06 09:50:26;;;;;;;;;;;;;;;;;;2207999;59;1948;-19
2024/01/06 09:53:05;;;;;;;;;;;;;;;;;;2207389;59;2889;-19
2024/01/06 09:55:35;;;;;;;;;;;;;;;;;;2208024;59;2438;-19
2024/01/06 09:58:06;;;;;;;;;;;;;;;;;;2207136;59;2646;-22
2024/01/06 10:00:37;;;;;;;;;;;;;;;;;;2209195;59;2628;-19
2024/01/06 10:03:08;;;;;;;;;;;;;;;;;;2207669;59;2671;-19
2024/01/06 10:05:38;;;;;;;;;;;;;;;;;;2208489;59;3077;-19
2024/01/06 10:08:09;;;;;;;;;;;;;;;;;;2208624;59;1947;-19
2024/01/06 10:10:39;;;;;;;;;;;;;;;;;;2209630;67;2429;-19
2024/01/06 10:13:10;;;;;;;;;;;;;;;;;;2208489;59;3128;-19
2024/01/06 10:15:41;;;;;;;;;;;;;;;;;;2207607;59;3168;-22
2024/01/06 10:18:13;;;;;;;;;;;;;;;;;;2208759;59;1626;-19
2024/01/06 10:20:47;;;;;;;;;;;;;;;;;;2207947;59;2560;-22
2024/01/06 10:23:18;;;;;;;;;;;;;;;;;;2208681;59;2028;-20
2024/01/06 10:25:52;;;;;;;;;;;;;;;;;;2209007;67;2512;-20
2024/01/06 10:28:25;;;;;;;;;;;;;;;;;;2208848;59;2054;-22
2024/01/06 10:30:56;;;;;;;;;;;;;;;;;;2208974;59;1832;-22
2024/01/06 10:33:26;;;;;;;;;;;;;;;;;;2207947;59;2073;-20
2024/01/06 10:35:57;;;;;;;;;;;;;;;;;;2207870;59;1878;-22
2024/01/06 10:38:29;;;;;;;;;;;;;;;;;;2208109;67;1916;-20
2024/01/06 10:41:02;;;;;;;;;;;;;;;;;;2207248;59;2156;-22
2024/01/06 10:43:36;;;;;;;;;;;;;;;;;;2207930;67;2792;-22
2024/01/06 10:46:10;;;;;;;;;;;;;;;;;;2209001;59;1827;-22
2024/01/06 10:48:42;;;;;;;;;;;;;;;;;;2204303;59;2090;-22
2024/01/06 10:51:14;;;;;;;;;;;;;;;;;;2203732;59;1903;-19
2024/01/06 10:53:45;;;;;;;;;;;;;;;;;;2206385;67;2461;-19
2024/01/06 10:56:15;;;;;;;;;;;;;;;;;;2208501;59;2694;-20
2024/01/06 10:58:47;;;;;;;;;;;;;;;;;;2206044;59;2064;-19
2024/01/06 11:01:20;;;;;;;;;;;;;;;;;;2206933;67;2248;-20
2024/01/06 11:03:52;;;;;;;;;;;;;;;;;;2205777;59;1821;-22
2024/01/06 11:06:23;;;;;;;;;;;;;;;;;;2207678;59;1834;-20
2024/01/06 11:08:58;;;;;;;;;;;;;;;;;;2207997;59;1881;-22
2024/01/06 11:11:30;;;;;;;;;;;;;;;;;;2208346;59;2258;-22
2024/01/06 11:14:20;;;;;;;;;;;;;;;;;;2206643;59;2643;-22
2024/01/06 11:16:51;;;;;;;;;;;;;;;;;;2208081;67;1864;-20
2024/01/06 11:19:34;;;;;;;;;;;;;;;;;;2208289;59;2726;-19
2024/01/06 11:22:23;;;;;;;;;;;;;;;;;;2209557;58;1876;-20
2024/01/06 11:24:57;;;;;;;;;;;;;;;;;;2206694;59;3104;-20
2024/01/06 11:27:28;;;;;;;;;;;;;;;;;;2210438;59;1629;-20
2024/01/06 11:30:05;;;;;;;;;;;;;;;;;;2207716;59;1929;-20
2024/01/06 11:32:38;;;;;;;;;;;;;;;;;;2208351;59;2434;-20
2024/01/06 11:35:10;;;;;;;;;;;;;;;;;;2208001;67;1868;-20
2024/01/06 11:37:41;;;;;;;;;;;;;;;;;;2207380;67;1994;-21
2024/01/06 11:40:20;;;;;;;;;;;;;;;;;;2207184;59;2002;-21
2024/01/06 11:43:11;;;;;;;;;;;;;;;;;;2207664;59;2233;-21
2024/01/06 11:45:42;;;;;;;;;;;;;;;;;;2208396;59;1817;-20
2024/01/06 11:48:13;;;;;;;;;;;;;;;;;;2207192;67;2520;-21
2024/01/06 11:50:44;;;;;;;;;;;;;;;;;;2206588;59;1896;-21
2024/01/06 11:53:15;;;;;;;;;;;;;;;;;;2206777;59;1813;-21
2024/01/06 11:55:48;;;;;;;;;;;;;;;;;;2205631;59;2214;-21
2024/01/06 11:58:19;;;;;;;;;;;;;;;;;;2206873;67;1824;-21
2024/01/06 12:00:57;;;;;;;;;;;;;;;;;;2206881;59;2004;-19
2024/01/06 12:03:30;;;;;;;;;;;;;;;;;;2207950;67;2550;-20
2024/01/06 12:06:02;;;;;;;;;;;;;;;;;;2206364;59;2107;-19
2024/01/06 12:08:33;;;;;;;;;;;;;;;;;;2207304;59;1875;-19
2024/01/06 12:11:07;;;;;;;;;;;;;;;;;;2207433;59;2271;-21
2024/01/06 12:13:38;;;;;;;;;;;;;;;;;;2207269;59;2759;-21
2024/01/06 12:16:09;;;;;;;;;;;;;;;;;;2206117;59;3435;-21
2024/01/06 12:18:40;;;;;;;;;;;;;;;;;;2207213;59;2718;-21
2024/01/06 12:21:10;;;;;;;;;;;;;;;;;;2206425;67;1932;-19
2024/01/06 12:23:41;;;;;;;;;;;;;;;;;;2207247;59;1978;-19
2024/01/06 12:26:12;;;;;;;;;;;;;;;;;;2208219;59;2822;-21
2024/01/06 12:28:48;;;;;;;;;;;;;;;;;;2204777;59;1892;-21
2024/01/06 12:31:20;;;;;;;;;;;;;;;;;;2208768;59;2318;-21
2024/01/06 12:33:51;;;;;;;;;;;;;;;;;;2208122;59;2177;-21
2024/01/06 12:36:22;;;;;;;;;;;;;;;;;;2208113;59;2031;-21
2024/01/06 12:38:52;;;;;;;;;;;;;;;;;;2207033;67;1839;-21
2024/01/06 12:41:22;;;;;;;;;;;;;;;;;;2206529;67;1948;-19
2024/01/06 12:43:53;;;;;;;;;;;;;;;;;;2207593;59;1880;-21
2024/01/06 12:46:24;;;;;;;;;;;;;;;;;;2208448;59;1904;-21
2024/01/06 12:48:55;;;;;;;;;;;;;;;;;;2205613;59;1917;-21
2024/01/06 12:51:27;;;;;;;;;;;;;;;;;;2207398;59;2149;-19
2024/01/06 12:53:58;;;;;;;;;;;;;;;;;;2205665;67;2496;-19
2024/01/06 12:56:29;;;;;;;;;;;;;;;;;;2208214;59;2237;-19
2024/01/06 12:59:00;;;;;;;;;;;;;;;;;;2206472;67;2036;-20
2024/01/06 13:01:30;;;;;;;;;;;;;;;;;;2208592;59;2309;-21
2024/01/06 13:04:01;;;;;;;;;;;;;;;;;;2207561;59;2193;-21
2024/01/06 13:06:32;;;;;;;;;;;;;;;;;;2208706;59;2050;-21
2024/01/06 13:09:06;;;;;;;;;;;;;;;;;;2206729;59;2022;-21
2024/01/06 13:11:37;;;;;;;;;;;;;;;;;;2208185;67;1865;-21
2024/01/06 13:14:08;;;;;;;;;;;;;;;;;;2207469;59;2016;-21
2024/01/06 13:16:38;;;;;;;;;;;;;;;;;;2206966;59;3286;-21
2024/01/06 13:19:08;;;;;;;;;;;;;;;;;;2207112;59;1989;-19
2024/01/06 13:21:39;;;;;;;;;;;;;;;;;;2206565;67;2218;-19
2024/01/06 13:24:10;;;;;;;;;;;;;;;;;;2206775;59;1868;-19
2024/01/06 13:26:41;;;;;;;;;;;;;;;;;;2207105;59;1754;-19
2024/01/06 13:29:11;;;;;;;;;;;;;;;;;;2205806;67;1906;-19
2024/01/06 13:31:44;;;;;;;;;;;;;;;;;;2207329;67;2951;-19
2024/01/06 13:34:14;;;;;;;;;;;;;;;;;;2206596;59;2521;-21
2024/01/06 13:36:45;;;;;;;;;;;;;;;;;;2207481;67;1837;-21
2024/01/06 13:39:22;;;;;;;;;;;;;;;;;;2206048;59;2022;-21
2024/01/06 13:41:52;;;;;;;;;;;;;;;;;;2207021;67;1957;-21
2024/01/06 13:44:23;;;;;;;;;;;;;;;;;;2209334;59;1845;-21
2024/01/06 13:46:54;;;;;;;;;;;;;;;;;;2205100;67;1832;-20
2024/01/06 13:49:25;;;;;;;;;;;;;;;;;;2206982;67;1756;-19
2024/01/06 13:51:56;;;;;;;;;;;;;;;;;;2206978;59;1968;-19
2024/01/06 13:54:26;;;;;;;;;;;;;;;;;;2206366;59;2176;-20
2024/01/06 13:56:57;;;;;;;;;;;;;;;;;;2206931;59;2650;-19
2024/01/06 13:59:27;;;;;;;;;;;;;;;;;;2207009;59;2616;-21
2024/01/06 14:01:58;;;;;;;;;;;;;;;;;;2207099;59;2581;-19
2024/01/06 14:04:28;;;;;;;;;;;;;;;;;;2207536;59;1726;-21
2024/01/06 14:07:01;;;;;;;;;;;;;;;;;;2207595;59;2053;-21
2024/01/06 14:09:32;;;;;;;;;;;;;;;;;;2207617;59;1766;-19
2024/01/06 14:12:05;;;;;;;;;;;;;;;;;;2206879;59;2317;-21
2024/01/06 14:14:36;;;;;;;;;;;;;;;;;;2207641;59;2169;-19
2024/01/06 14:17:07;;;;;;;;;;;;;;;;;;2205065;59;2821;-19
2024/01/06 14:19:38;;;;;;;;;;;;;;;;;;2206467;59;3193;-21
2024/01/06 14:22:09;;;;;;;;;;;;;;;;;;2206392;59;2307;-21
2024/01/06 14:24:39;;;;;;;;;;;;;;;;;;2207868;67;2327;-21
2024/01/06 14:27:09;;;;;;;;;;;;;;;;;;2207229;59;1899;-21
2024/01/06 14:29:40;;;;;;;;;;;;;;;;;;2208045;59;2002;-20
2024/01/06 14:32:11;;;;;;;;;;;;;;;;;;2207341;59;2600;-19
2024/01/06 14:34:42;;;;;;;;;;;;;;;;;;2207628;59;1808;-21
2024/01/06 14:37:13;;;;;;;;;;;;;;;;;;2207120;59;2314;-19
2024/01/06 14:39:43;;;;;;;;;;;;;;;;;;2207678;59;1911;-19
2024/01/06 14:42:15;;;;;;;;;;;;;;;;;;2207534;67;1929;-21
2024/01/06 14:44:46;;;;;;;;;;;;;;;;;;2207390;67;1800;-19
2024/01/06 14:47:17;;;;;;;;;;;;;;;;;;2205328;59;1842;-19
2024/01/06 14:49:48;;;;;;;;;;;;;;;;;;2207258;59;1836;-19
2024/01/06 14:52:19;;;;;;;;;;;;;;;;;;2207990;67;1781;-21
2024/01/06 14:54:49;;;;;;;;;;;;;;;;;;2208776;67;1855;-21
2024/01/06 14:57:20;;;;;;;;;;;;;;;;;;2207455;67;2120;-19
2024/01/06 14:59:50;;;;;;;;;;;;;;;;;;2209092;59;1943;-21
2024/01/06 15:02:21;;;;;;;;;;;;;;;;;;2207793;59;2079;-21
2024/01/06 15:04:53;;;;;;;;;;;;;;;;;;2208583;67;2432;-19
2024/01/06 15:07:24;;;;;;;;;;;;;;;;;;2208056;59;1895;-21
2024/01/06 15:09:55;;;;;;;;;;;;;;;;;;2209517;59;1768;-19
2024/01/06 15:12:26;;;;;;;;;;;;;;;;;;2207376;67;2467;-19
2024/01/06 15:15:00;;;;;;;;;;;;;;;;;;2207607;59;1718;-21
2024/01/06 15:17:31;;;;;;;;;;;;;;;;;;2207679;59;2638;-21
2024/01/06 15:20:01;;;;;;;;;;;;;;;;;;2206544;59;2941;-21
2024/01/06 15:22:32;;;;;;;;;;;;;;;;;;2208892;59;2193;-21
2024/01/06 15:25:06;;;;;;;;;;;;;;;;;;2207262;59;1767;-19
2024/01/06 15:27:36;;;;;;;;;;;;;;;;;;2207663;59;2210;-20
2024/01/06 15:30:08;;;;;;;;;;;;;;;;;;2207862;59;1953;-19
2024/01/06 15:32:41;;;;;;;;;;;;;;;;;;2207264;59;2166;-19
2024/01/06 15:35:12;;;;;;;;;;;;;;;;;;2207932;67;2183;-21
2024/01/06 15:37:43;;;;;;;;;;;;;;;;;;2208743;59;2602;-19
2024/01/06 15:40:16;;;;;;;;;;;;;;;;;;2207695;59;2210;-21
2024/01/06 15:42:47;;;;;;;;;;;;;;;;;;2208866;59;2228;-21
2024/01/06 15:45:17;;;;;;;;;;;;;;;;;;2208817;59;2187;-21
2024/01/06 15:47:48;;;;;;;;;;;;;;;;;;2208792;59;2161;-21
2024/01/06 15:50:18;;;;;;;;;;;;;;;;;;2208179;59;2344;-20
2024/01/06 15:52:49;;;;;;;;;;;;;;;;;;2208465;67;1949;-21
2024/01/06 15:55:19;;;;;;;;;;;;;;;;;;2209259;59;2246;-19
2024/01/06 15:57:50;;;;;;;;;;;;;;;;;;2208866;59;1984;-21
2024/01/06 16:00:21;;;;;;;;;;;;;;;;;;2208501;59;1948;-19
2024/01/06 16:02:52;;;;;;;;;;;;;;;;;;2208025;59;2161;-19
2024/01/06 16:05:24;;;;;;;;;;;;;;;;;;2205465;59;1791;-21
2024/01/06 16:07:54;;;;;;;;;;;;;;;;;;2208446;59;1283;-21
2024/01/06 16:10:28;;;;;;;;;;;;;;;;;;2207213;59;3394;-19
2024/01/06 16:12:59;;;;;;;;;;;;;;;;;;2207598;59;2311;-21
2024/01/06 16:15:30;;;;;;;;;;;;;;;;;;2207038;59;2091;-20
2024/01/06 16:18:03;;;;;;;;;;;;;;;;;;2208325;59;2167;-19
2024/01/06 16:20:33;;;;;;;;;;;;;;;;;;2207693;59;3199;-21
2024/01/06 16:23:04;;;;;;;;;;;;;;;;;;2207029;67;1795;-19
2024/01/06 16:25:37;;;;;;;;;;;;;;;;;;2208807;59;1952;-19
2024/01/06 16:28:11;;;;;;;;;;;;;;;;;;2207648;53;3125;-19
2024/01/06 16:30:41;;;;;;;;;;;;;;;;;;2204262;59;2571;-24
2024/01/06 16:33:12;;;;;;;;;;;;;;;;;;2204426;59;2110;-19
2024/01/06 16:35:45;;;;;;;;;;;;;;;;;;2204560;59;2625;-21
2024/01/06 16:38:16;;;;;;;;;;;;;;;;;;2199452;59;1678;-21
2024/01/06 16:40:46;;;;;;;;;;;;;;;;;;2203990;59;2688;-19
2024/01/06 16:43:17;;;;;;;;;;;;;;;;;;2204739;59;2272;-21
2024/01/06 16:45:47;;;;;;;;;;;;;;;;;;2206182;59;2324;-20
2024/01/06 16:48:18;;;;;;;;;;;;;;;;;;2199369;59;2193;-21
2024/01/06 16:50:49;;;;;;;;;;;;;;;;;;2201220;59;1967;-21
2024/01/06 16:53:20;;;;;;;;;;;;;;;;;;2200748;67;2481;-20
2024/01/06 16:55:51;;;;;;;;;;;;;;;;;;2204671;59;2148;-22
2024/01/06 16:58:21;;;;;;;;;;;;;;;;;;2201005;59;3038;-22
2024/01/06 17:00:52;;;;;;;;;;;;;;;;;;2205733;59;1944;-22
2024/01/06 17:03:22;;;;;;;;;;;;;;;;;;2200390;59;2843;-20
2024/01/06 17:05:53;;;;;;;;;;;;;;;;;;2207942;59;2026;-22
2024/01/06 17:08:23;;;;;;;;;;;;;;;;;;2200671;59;2451;-21
2024/01/06 17:10:54;;;;;;;;;;;;;;;;;;2202024;67;2133;-20
2024/01/06 17:13:24;;;;;;;;;;;;;;;;;;2204672;59;2733;-22
2024/01/06 17:15:55;;;;;;;;;;;;;;;;;;2205308;59;2640;-22
2024/01/06 17:18:26;;;;;;;;;;;;;;;;;;2203141;67;2320;-20
2024/01/06 17:20:56;;;;;;;;;;;;;;;;;;2204583;59;2553;-22
2024/01/06 17:23:27;;;;;;;;;;;;;;;;;;2204929;67;2026;-20
2024/01/06 17:25:57;;;;;;;;;;;;;;;;;;2205074;60;1850;-22
2024/01/06 17:28:28;;;;;;;;;;;;;;;;;;2199721;59;2699;-20
2024/01/06 17:31:00;;;;;;;;;;;;;;;;;;2205423;59;2877;-22